Sterling, MI (48659)

4:57 PM EDT on September 01, 2015 (GMT -0400)
MesoWest | | Change Station
CLOSE
Current Station
Personal Weather Station
Location: West Branch, MI
Elevation: 977 ft
Nearby Weather Stations

Elev 977 ft 44.25 °N, 84.23 °W | Updated 37 minutes ago

Clear
Clear
87 °F
Feels Like 90 °F
N
4
Wind Variable Wind from South
Gusts 11.0 mph

Today
High -- | Low -- °F
--% Chance of Precip.
Yesterday
High -- | Low -- °F
Precip. -- in
6:59 AM 8:12 PM
Waning Gibbous, 86% visible
Pressure 30.00 in
Visibility 10.0 miles
Clouds Clear
Heat Index 90 °F
Dew Point 67 °F
Humidity 52%
Rainfall in
Snow Depth Not available.
UV 4 out of 12
Pollen 11.00 out of 12
Air Quality Not available.
Flu Activity Not available.
METAR KIKW 012053Z AUTO 23007KT 10SM CLR 31/20 A3000 RMK AO2 T03060197
Pressure 30.00 in
Visibility 10.0 miles
Clouds Clear
Heat Index 90 °F
Dew Point 67 °F
Humidity 52%
Rainfall in
Snow Depth Not available.
UV 4 out of 12
Pollen 11.00 out of 12
Air Quality Not available.
Flu Activity Not available.
METAR KIKW 012053Z AUTO 23007KT 10SM CLR 31/20 A3000 RMK AO2 T03060197
Nowcast | as of 4:00 PM EDT on September 1, 2015

At 5 PM...mostly clear. Temperature 86. Southwest winds 8 mph. At 7 PM...mostly clear. Temperature 81. Southwest winds 7 mph. At 9 PM...mostly clear. Temperature 77. Southwest winds 5 mph. At 11 PM...mostly clear. Temperature 76. Light winds.

×

10-Day Weather Forecast

×

Almanac

Astronomy

Sep. 01, 2015 Rise Set
Actual Time
Civil Twilight
Nautical Twilight
Astronomical Twilight
Moon
Length of Visible Light
Length of Day
Tomorrow will be .
, % of the Moon is Illuminated

Today's Extremes

State Highs State Lows

Community

WunderPhotos

Upload Photos

1,851,608 photos uploaded!

WunderBlogs® & News

Nearby

Air Quality

  Air Quality AQ Index Pollutant
Not available.

Snow Depth

Station Depth Elevation

Earthquake Activity

City Distance Mag. Time & Date
Minimum magnitude displayed is 2.5.

Coastal Water Temperatures

Place Temperature

Stations

Nearby Weather Stations

Station Location Temp. Windchill Dew Point Humidity Wind Precip. Elev Updated Type